• Join FlightAware (Why Join?)
  • Login
  • US Flag 
11:48PM EDT


 

Airport Tracker/Info


-or-


 

Live Flight TrackerFlight Track Log ✈ SWA718 ✈ 26-Jul-2013 ✈ KOAK - KHOU

Flight Track Log - Related Links

Times and Time Zones

All times are in EDT time to prevent confusion due to time zone crossing. See the SWA718 flight status page for this flight to view local times or setup timezone preferences in your user account.

Time Position Orientation Groundspeed Altitude Reporting Facility
EDT Latitude Longitude Course Direction KTS MPH feet Rate Location/Type
09:19AM 37.7167 -122.2500 288° West 161 185 800  Level Northern Cal TRACON
09:20AM 37.7333 -122.3167 288° West 212 244 2,600 1,980 Climbing Northern Cal TRACON
09:21AM 37.7667 -122.3667 310° West 230 265 4,800 2,220 Climbing Northern Cal TRACON
09:22AM 37.8333 -122.3833 349° North 287 330 7,100 2,460 Climbing Northern Cal TRACON
09:23AM 37.9089 -122.3783 North 294 338 9,500 2,820 Climbing Oakland Center
09:24AM 37.9497 -122.2922 59° Northeast 300 345 12,500 2,640 Climbing Oakland Center
09:25AM 37.9606 -122.1822 83° East 316 364 14,900 1,200 Climbing Oakland Center
09:26AM 37.9725 -122.0672 82° East 327 376 15,000 900 Climbing Oakland Center
09:27AM 37.9847 -121.9428 83° East 352 405 16,800 1,620 Climbing Oakland Center
09:28AM 37.9972 -121.8106 83° East 375 432 18,300 1,680 Climbing Oakland Center
09:29AM 38.0108 -121.6775 83° East 381 438 20,300 2,040 Climbing Oakland Center
09:30AM 38.0069 -121.5369 92° East 397 457 22,500 2,100 Climbing Oakland Center
09:31AM 37.9933 -121.3836 96° East 404 465 24,600 1,680 Climbing Oakland Center
09:32AM 37.9814 -121.2333 96° East 426 490 26,000 1,440 Climbing Oakland Center
09:33AM 37.9831 -121.0742 89° East 455 524 27,600 1,620 Climbing Oakland Center
09:34AM 37.9942 -120.9117 85° East 464 534 29,300 1,380 Climbing Oakland Center
09:35AM 38.0044 -120.7475 85° East 470 541 30,500 1,260 Climbing Oakland Center
09:36AM 38.0167 -120.5761 85° East 485 558 31,900 1,260 Climbing Oakland Center
09:37AM 38.0272 -120.4053 85° East 487 560 33,100 1,200 Climbing Oakland Center
09:38AM 38.0381 -120.2319 85° East 493 567 34,400 1,320 Climbing Oakland Center
09:39AM 38.0506 -120.0594 85° East 493 567 35,800 1,260 Climbing Oakland Center
09:40AM 38.0608 -119.8883 86° East 490 564 37,000 540 Climbing Oakland Center
09:41AM 38.0694 -119.7175 86° East 487 560 37,000  Level Oakland Center
09:42AM 38.0803 -119.5450 85° East 492 566 37,000  Level Oakland Center
09:43AM 38.0894 -119.3422 87° East 483 556 37,000  Level Oakland Center
09:44AM 38.0981 -119.1714 86° East 486 559 37,000  Level Oakland Center
09:45AM 38.1092 -119.0050 85° East 486 559 37,000  Level Oakland Center
09:46AM 38.1189 -118.8353 86° East 484 557 37,000  Level Oakland Center
09:47AM 38.1239 -118.6642 88° East 485 558 37,000  Level Oakland Center
09:48AM 38.1319 -118.4958 86° East 485 558 37,000  Level Oakland Center
09:49AM 38.1400 -118.3267 86° East 483 556 37,000  Level Oakland Center
09:50AM 38.1467 -118.1572 87° East 483 556 37,000  Level Oakland Center
09:51AM 38.1547 -117.9831 87° East 482 555 37,000  Level Oakland Center
09:52AM 38.1614 -117.8131 87° East 482 555 37,000  Level Oakland Center
09:53AM 38.1689 -117.6433 87° East 482 555 37,000  Level Oakland Center
09:54AM 38.1750 -117.4739 87° East 481 554 37,000  Level Oakland Center
09:55AM 38.1817 -117.2800 87° East 477 549 37,000  Level Oakland Center
09:56AM 38.1900 -117.1042 86° East 506 582 37,000  Level Oakland Center
09:57AM 38.1933 -116.9494 88° East 479 551 37,000  Level Oakland Center
09:58AM 38.1983 -116.7831 88° East 472 543 37,000  Level Oakland Center
09:59AM 38.2033 -116.6139 88° East 477 549 37,000  Level Oakland Center
10:00AM 38.2078 -116.4447 88° East 479 551 37,000  Level Oakland Center
10:02AM 38.2144 -116.2403 88° East 482 555 37,000  Level Salt Lake Center
10:03AM 38.2186 -116.0700 88° East 483 556 37,000  Level Salt Lake Center
10:04AM 38.2244 -115.8658 88° East 482 555 37,000  Level Salt Lake Center
10:05AM 38.2286 -115.6947 88° East 485 558 37,000  Level Salt Lake Center
10:06AM 38.2308 -115.5242 89° East 482 555 37,000  Level Salt Lake Center
10:07AM 38.2342 -115.3547 89° East 481 554 37,000  Level Salt Lake Center
10:08AM 38.2386 -115.1844 88° East 484 557 37,000  Level Salt Lake Center
10:09AM 38.2417 -115.0136 89° East 483 556 37,000  Level Salt Lake Center
10:10AM 38.2447 -114.8428 89° East 485 558 37,000  Level Salt Lake Center
10:11AM 38.2481 -114.6389 89° East 482 555 37,000  Level Salt Lake Center
10:12AM 38.2494 -114.4667 89° East 486 559 37,000  Level Salt Lake Center
10:14AM 38.2489 -114.1289 90° East 485 558 37,000  Level Salt Lake Center
10:15AM 38.2050 -113.9719 110° East 473 544 37,000  Level Salt Lake Center
10:16AM 38.1622 -113.8144 109° East 471 542 37,000  Level Salt Lake Center
10:17AM 38.1186 -113.6564 109° East 474 545 37,000  Level Salt Lake Center
10:18AM 38.0750 -113.4986 109° East 473 544 37,000  Level Salt Lake Center
10:19AM 38.0228 -113.3089 109° East 474 545 37,000  Level Salt Lake Center
10:20AM 37.9775 -113.1492 110° East 479 551 37,000  Level Salt Lake Center
10:21AM 37.9342 -112.9903 109° East 476 548 37,000  Level Salt Lake Center
10:22AM 37.8889 -112.8300 110° East 478 550 37,000  Level Salt Lake Center
10:23AM 37.8422 -112.6703 110° East 478 550 37,000  Level Salt Lake Center
10:24AM 37.7961 -112.5111 110° East 477 549 37,000  Level Salt Lake Center
10:25AM 37.7506 -112.3531 110° East 477 549 37,000  Level Salt Lake Center
10:26AM 37.7050 -112.1956 110° East 477 549 37,000  Level Salt Lake Center
10:27AM 37.6581 -112.0386 111° Southeast 476 548 37,000  Level Salt Lake Center
10:28AM 37.6031 -111.8514 110° East 476 548 37,000  Level Salt Lake Center
10:29AM 37.5578 -111.6956 110° East 474 545 37,000  Level Salt Lake Center
10:30AM 37.5106 -111.5394 111° Southeast 476 548 37,000  Level Salt Lake Center
10:32AM 37.4644 -111.3844 111° Southeast 473 544 37,000  Level Denver Center
10:33AM 37.4086 -111.1986 111° Southeast 473 544 37,000  Level Denver Center
10:34AM 37.3631 -111.0431 110° East 473 544 37,000  Level Denver Center
10:35AM 37.3150 -110.8883 111° Southeast 476 548 37,000  Level Denver Center
10:36AM 37.2675 -110.7333 111° Southeast 477 549 37,000  Level Denver Center
10:37AM 37.2197 -110.5778 111° Southeast 478 550 37,000  Level Denver Center
10:38AM 37.1717 -110.4239 111° Southeast 475 547 37,000  Level Denver Center
10:39AM 37.1139 -110.2383 111° Southeast 478 550 37,000  Level Denver Center
10:40AM 37.0681 -110.0942 112° Southeast 474 545 37,000  Level Denver Center
10:41AM 37.0150 -109.9219 111° Southeast 475 547 37,000  Level Denver Center
10:42AM 36.9689 -109.7761 112° Southeast 471 542 37,000  Level Denver Center
10:43AM 36.9144 -109.6031 111° Southeast 477 549 37,000  Level Denver Center
10:44AM 36.8675 -109.4561 112° Southeast 475 547 37,000  Level Denver Center
10:45AM 36.8197 -109.3097 112° Southeast 474 545 37,000  Level Denver Center
10:46AM 36.7642 -109.1386 112° Southeast 475 547 37,000  Level Denver Center
10:47AM 36.7169 -108.9925 112° Southeast 474 545 37,000  Level Denver Center
10:48AM 36.6608 -108.8211 112° Southeast 475 547 37,000  Level Denver Center
10:49AM 36.6122 -108.6731 112° Southeast 477 549 37,000  Level Denver Center
10:50AM 36.5558 -108.5025 112° Southeast 476 548 37,000  Level Denver Center
10:51AM 36.5078 -108.3564 112° Southeast 474 545 37,000  Level Denver Center
10:52AM 36.4586 -108.2106 113° Southeast 475 547 37,000  Level Denver Center
10:53AM 36.4017 -108.0414 113° Southeast 475 547 37,000  Level Denver Center
10:54AM 36.3525 -107.8969 113° Southeast 473 544 37,000  Level Denver Center
10:55AM 36.2956 -107.7278 113° Southeast 475 547 37,000  Level Denver Center
10:56AM 36.2464 -107.5850 113° Southeast 471 542 37,000  Level Denver Center
10:57AM 36.1894 -107.4167 113° Southeast 473 544 37,000  Level Denver Center
10:58AM 36.1369 -107.2658 113° Southeast 475 547 37,000  Level Denver Center
11:00AM 36.0850 -107.1150 113° Southeast 476 548 37,000  Level Denver Center
11:01AM 36.0322 -106.9631 113° Southeast 478 550 37,000  Level Denver Center
11:02AM 35.9797 -106.8128 113° Southeast 476 548 37,000  Level Denver Center
11:03AM 35.9042 -106.6003 114° Southeast 480 552 37,000 360 Level Albuquerque Center
11:04AM 35.8450 -106.4294 113° Southeast 489 563 38,000 840 Climbing Albuquerque Center
11:05AM 35.7858 -106.2664 114° Southeast 485 558 38,800 480 Climbing Albuquerque Center
11:06AM 35.7350 -106.1156 113° Southeast 474 545 39,000 60 Climbing Albuquerque Center
11:07AM 35.6811 -105.9636 114° Southeast 479 551 39,000  Level Albuquerque Center
11:08AM 35.6161 -105.7925 115° Southeast 505 581 39,000  Level Albuquerque Center
11:09AM 35.5611 -105.6433 114° Southeast 488 562 39,000  Level Albuquerque Center
11:10AM 35.5064 -105.4928 114° Southeast 481 554 39,000  Level Albuquerque Center
11:11AM 35.4511 -105.3425 114° Southeast 480 552 39,000  Level Albuquerque Center
11:12AM 35.3958 -105.1922 114° Southeast 481 554 39,000  Level Albuquerque Center
11:13AM 35.3303 -105.0189 115° Southeast 479 551 39,000  Level Albuquerque Center
11:15AM 35.2664 -104.8458 114° Southeast 476 548 39,000  Level Albuquerque Center
11:16AM 35.2114 -104.6986 115° Southeast 473 544 39,000  Level Albuquerque Center
11:17AM 35.1536 -104.5461 115° Southeast 477 549 39,000  Level Albuquerque Center
11:18AM 35.0964 -104.3992 115° Southeast 480 552 39,000  Level Albuquerque Center
11:19AM 35.0436 -104.2594 115° Southeast 473 544 39,000  Level Albuquerque Center
11:20AM 34.9800 -104.0881 114° Southeast 477 549 39,000  Level Albuquerque Center
11:21AM 34.9247 -103.9414 115° Southeast 475 547 39,000  Level Albuquerque Center
11:22AM 34.8683 -103.7950 115° Southeast 475 547 39,000  Level Albuquerque Center
11:23AM 34.8119 -103.6486 115° Southeast 475 547 39,000  Level Albuquerque Center
11:24AM 34.7556 -103.5022 115° Southeast 474 545 39,000  Level Albuquerque Center
11:25AM 34.6975 -103.3561 116° Southeast 476 548 39,000  Level Albuquerque Center
11:26AM 34.6308 -103.1853 115° Southeast 477 549 39,000  Level Albuquerque Center
11:27AM 34.5739 -103.0381 115° Southeast 478 550 39,000  Level Albuquerque Center
11:28AM 34.5153 -102.8908 116° Southeast 479 551 39,000  Level Albuquerque Center
11:29AM 34.4472 -102.7664 124° Southeast 481 554 39,000  Level Albuquerque Center
11:30AM 34.3650 -102.6397 128° Southeast 480 552 39,000  Level Albuquerque Center
11:31AM 34.2642 -102.4875 129° Southeast 483 556 39,000  Level Albuquerque Center
11:32AM 34.1939 -102.3783 128° Southeast 484 557 39,000  Level Albuquerque Center
11:33AM 34.1247 -102.2756 129° Southeast 481 554 39,000  Level Fort Worth Center
11:34AM 34.0497 -102.1661 130° Southeast 481 554 39,000  Level Fort Worth Center
11:35AM 33.9522 -102.0331 131° Southeast 475 547 39,000  Level Fort Worth Center
11:36AM 33.8661 -101.9408 138° Southeast 475 547 39,000  Level Fort Worth Center
11:37AM 33.7800 -101.8389 135° Southeast 468 539 39,000  Level Fort Worth Center
11:38AM 33.6569 -101.7131 140° Southeast 479 551 39,000  Level Fort Worth Center
11:39AM 33.5522 -101.6031 139° Southeast 497 572 39,000  Level Fort Worth Center
11:40AM 33.4678 -101.5094 137° Southeast 483 556 39,000  Level Fort Worth Center
11:41AM 33.3586 -101.3950 139° Southeast 472 543 39,000  Level Fort Worth Center
11:42AM 33.2717 -101.3042 139° Southeast 472 543 39,000  Level Fort Worth Center
11:43AM 33.1828 -101.2083 138° Southeast 472 543 39,000  Level Fort Worth Center
11:44AM 33.0736 -101.0972 140° Southeast 472 543 39,000  Level Fort Worth Center
11:45AM 32.9642 -100.9836 139° Southeast 472 543 39,000  Level Fort Worth Center
11:46AM 32.8625 -100.8808 140° Southeast 472 543 39,000  Level Fort Worth Center
11:47AM 32.7631 -100.7756 138° Southeast 467 537 39,000  Level Fort Worth Center
11:48AM 32.6636 -100.6756 140° Southeast 467 537 39,000  Level Fort Worth Center
11:49AM 32.5639 -100.5733 139° Southeast 467 537 39,000  Level Fort Worth Center
11:50AM 32.4661 -100.4717 139° Southeast 467 537 39,000  Level Fort Worth Center
11:51AM 32.3664 -100.3697 139° Southeast 467 537 39,000  Level Fort Worth Center
11:52AM 32.2747 -100.2758 139° Southeast 473 544 39,000  Level Fort Worth Center
11:53AM 32.1786 -100.1747 138° Southeast 473 544 39,000  Level Fort Worth Center
11:54AM 32.0767 -100.0736 140° Southeast 468 539 39,000  Level Fort Worth Center
11:55AM 31.9786 -99.9703 138° Southeast 468 539 39,000  Level Fort Worth Center
11:57AM 31.7997 -99.7856 139° Southeast 467 537 39,000  Level Houston Center
11:58AM 31.7011 -99.6864 139° Southeast 466 536 39,000  Level Houston Center
11:59AM 31.5842 -99.5694 140° Southeast 461 531 39,000  Level Houston Center
12:00PM 31.4933 -99.4769 139° Southeast 462 532 39,000  Level Houston Center
12:01PM 31.3944 -99.3800 140° Southeast 459 528 39,000  Level Houston Center
12:02PM 31.2931 -99.2764 139° Southeast 458 527 39,000  Level Houston Center
12:03PM 31.2378 -99.1239 113° Southeast 453 521 39,000  Level Houston Center
12:04PM 31.2014 -98.9803 106° East 457 526 39,000  Level Houston Center
12:05PM 31.1642 -98.8394 107° East 452 520 39,000  Level Houston Center
12:06PM 31.1281 -98.6956 106° East 456 525 39,000  Level Houston Center
12:07PM 31.0903 -98.5544 107° East 453 521 39,000  Level Houston Center
12:08PM 31.0536 -98.4122 107° East 453 521 39,000  Level Houston Center
12:09PM 31.0106 -98.2467 107° East 454 522 39,000  Level Houston Center
12:10PM 30.9731 -98.1058 107° East 452 520 39,000  Level Houston Center
12:11PM 30.9361 -97.9647 107° East 451 519 39,000  Level Houston Center
12:12PM 30.8989 -97.8264 107° East 447 514 39,000 -180 Level Houston Center
12:13PM 30.8619 -97.6892 107° East 442 509 38,700 -900 Descending Houston Center
12:14PM 30.8242 -97.5511 108° East 444 511 37,200 -2,280 Descending Houston Center
12:15PM 30.7800 -97.3894 108° East 451 519 34,000 -2,940 Descending Houston Center
12:16PM 30.7431 -97.2458 107° East 465 535 31,200 -2,460 Descending Houston Center
12:17PM 30.7056 -97.1053 107° East 458 527 29,000 -1,380 Descending Houston Center
12:18PM 30.6681 -96.9683 108° East 447 514 28,400 -1,860 Descending Houston Center
12:19PM 30.6292 -96.8303 108° East 446 513 25,200 -3,120 Descending Houston Center
12:20PM 30.5831 -96.6661 108° East 454 522 22,000 -2,880 Descending Houston Center
12:21PM 30.5136 -96.5781 132° Southeast 442 509 19,800 -2,520 Descending Houston Center
12:23PM 30.4178 -96.4606 133° Southeast 423 487 16,900 -2,400 Descending Houston Center
12:24PM 30.3386 -96.3647 134° Southeast 409 471 14,500 -2,280 Descending Houston Center
12:25PM 30.2625 -96.2744 134° Southeast 389 448 12,200 -1,680 Descending Houston Center
12:26PM 30.1861 -96.1969 139° Southeast 363 418 11,000 -600 Descending Houston Center
12:27PM 30.0906 -96.1447 155° Southeast 339 390 11,000  Level Houston Center
12:28PM 30.0050 -96.0994 155° Southeast 336 387 11,000 -60 Level Houston Center
12:29PM 29.9211 -96.0503 153° Southeast 339 390 10,900 -120 Descending Houston Center
12:30PM 29.8967 -95.9456 105° East 345 397 10,800 -780 Descending Houston Center
12:31PM 29.8789 -95.8511 102° East 313 360 9,400 -1,380 Descending Houston Center
12:32PM 29.8611 -95.7586 102° East 301 346 8,000 -1,500 Descending Houston Center
12:33PM 29.8394 -95.6489 103° East 293 337 6,400 -960 Descending Houston Center
12:34PM 29.8236 -95.5642 102° East 280 322 6,000 -900 Descending Houston Center
12:35PM 29.8092 -95.4900 103° East 250 288 4,600 -1,260 Descending Houston Center
12:36PM 29.7733 -95.4322 126° Southeast 238 274 3,400 -1,140 Descending Houston Center
12:37PM 29.7336 -95.3844 134° Southeast 219 252 2,300 -1,020 Descending Houston Center
12:38PM 29.7003 -95.3447 134° Southeast 195 224 1,400 -900 Descending Houston Center
12:39PM 29.6661 -95.3047 135° Southeast 144 166 500 -660 Descending Houston Center
12:40PM 29.6431 -95.2761 133° Southeast 151 174 100 -420 Descending Houston Center
12:42PM 29.6454 -95.2789 115° Southeast  Level Estimated